Time;durP1;ratioP1;P1;durP2;ratioP2;P2;SDS_P1;SDS_P2;PMS_P1;PMS_P2;Temp;Humidity;BMP_temperature;BMP_pressure;BME280_temperature;BME280_humidity;BME280_pressure;Samples;Min_cycle;Max_cycle;Signal;HPM_P1;HPM_P2
2023/07/03 00:02:16;;;;;;;11.48;7.68;;;16.20;99.90;;;;;;2701953;39;20527;31
2023/07/03 00:04:54;;;;;;;10.60;6.40;;;16.10;99.90;;;;;;2603823;54;19997;31
2023/07/03 00:07:33;;;;;;;13.10;7.50;;;16.10;99.90;;;;;;2603625;54;20093;31
2023/07/03 00:10:07;;;;;;;11.15;7.45;;;16.10;99.90;;;;;;2603667;54;20030;31
2023/07/03 00:12:42;;;;;;;10.48;6.60;;;16.10;99.90;;;;;;2603531;54;20797;31
2023/07/03 00:15:17;;;;;;;9.35;6.15;;;16.00;99.90;;;;;;2621865;46;20033;31
2023/07/03 00:17:52;;;;;;;10.55;5.80;;;16.00;99.90;;;;;;2622102;46;20030;31
2023/07/03 00:20:28;;;;;;;8.60;6.95;;;16.00;99.90;;;;;;2603763;54;20255;31
2023/07/03 00:23:05;;;;;;;8.27;5.83;;;15.90;99.90;;;;;;2603336;54;20030;31
2023/07/03 00:25:40;;;;;;;10.00;6.15;;;15.90;99.90;;;;;;2603440;54;20604;31
2023/07/03 00:28:15;;;;;;;11.27;7.03;;;15.90;99.90;;;;;;2702012;39;20529;31
2023/07/03 00:30:50;;;;;;;12.20;8.55;;;15.90;99.90;;;;;;2603401;54;20905;31
2023/07/03 00:33:25;;;;;;;16.90;9.80;;;15.90;99.90;;;;;;2603305;54;20037;31
2023/07/03 00:36:00;;;;;;;11.60;7.90;;;15.90;99.90;;;;;;2603560;54;20038;31
2023/07/03 00:38:38;;;;;;;10.77;7.00;;;15.90;99.90;;;;;;2603328;54;20030;31
2023/07/03 00:41:12;;;;;;;13.52;6.70;;;15.90;99.90;;;;;;2603729;54;20887;31
2023/07/03 00:43:48;;;;;;;13.00;7.60;;;15.90;99.90;;;;;;2603331;54;20038;31
2023/07/03 00:46:24;;;;;;;13.13;7.60;;;15.90;99.90;;;;;;2603581;54;20058;31
2023/07/03 00:49:03;;;;;;;11.65;6.90;;;15.90;99.90;;;;;;2603285;54;19934;31
2023/07/03 00:51:39;;;;;;;8.27;6.50;;;15.90;99.90;;;;;;2621655;46;20569;31
2023/07/03 00:54:17;;;;;;;8.05;6.43;;;15.90;99.90;;;;;;2603532;54;20030;31
2023/07/03 00:56:52;;;;;;;9.05;7.32;;;15.90;99.90;;;;;;2612099;46;20040;31
2023/07/03 00:59:28;;;;;;;12.75;7.30;;;15.80;99.90;;;;;;2603263;54;20865;31
2023/07/03 01:02:07;;;;;;;8.70;6.75;;;15.80;99.90;;;;;;2603557;54;20030;31
2023/07/03 01:04:49;;;;;;;12.32;7.35;;;15.80;99.90;;;;;;2603228;54;20916;31
2023/07/03 01:07:25;;;;;;;11.70;7.60;;;15.70;99.90;;;;;;2603285;54;20801;31
2023/07/03 01:10:05;;;;;;;15.30;8.65;;;15.70;99.90;;;;;;2603346;54;20805;31
2023/07/03 01:12:41;;;;;;;14.60;7.35;;;15.70;99.90;;;;;;2603305;54;20050;31
2023/07/03 01:15:17;;;;;;;13.13;9.23;;;15.70;99.90;;;;;;2702047;39;21175;31
2023/07/03 01:17:53;;;;;;;14.35;8.40;;;15.60;99.90;;;;;;2603673;54;20033;31
2023/07/03 01:20:31;;;;;;;10.43;7.38;;;15.70;99.90;;;;;;2621559;46;20109;31
2023/07/03 01:23:07;;;;;;;11.20;8.50;;;15.60;99.90;;;;;;2603397;54;20804;31
2023/07/03 01:25:44;;;;;;;10.32;6.90;;;15.60;99.90;;;;;;2603350;54;20923;31
2023/07/03 01:28:18;;;;;;;9.07;6.72;;;15.60;99.90;;;;;;2621627;46;20864;31
2023/07/03 01:30:53;;;;;;;9.02;6.72;;;15.60;99.90;;;;;;2603135;54;20031;31
2023/07/03 01:33:31;;;;;;;9.90;7.07;;;15.60;99.90;;;;;;2603344;54;20840;31
2023/07/03 01:36:06;;;;;;;12.10;7.70;;;15.60;99.90;;;;;;2603026;54;20028;31
2023/07/03 01:38:43;;;;;;;12.30;7.30;;;15.60;99.90;;;;;;2603282;54;20935;31
2023/07/03 01:41:20;;;;;;;8.75;6.85;;;15.60;99.90;;;;;;2603413;54;20050;31
2023/07/03 01:43:54;;;;;;;9.75;6.57;;;15.60;99.90;;;;;;2603116;54;20080;31
2023/07/03 01:46:29;;;;;;;10.20;6.30;;;15.60;99.90;;;;;;2603146;54;20026;31
2023/07/03 01:49:05;;;;;;;11.60;7.35;;;15.60;99.90;;;;;;2603286;54;20617;31
2023/07/03 01:51:43;;;;;;;9.50;6.47;;;15.60;99.90;;;;;;2603202;54;20050;31
2023/07/03 01:54:19;;;;;;;10.30;6.60;;;15.60;99.90;;;;;;2603218;54;20032;31
2023/07/03 01:56:57;;;;;;;10.43;7.65;;;15.60;99.90;;;;;;2701373;39;20493;31
2023/07/03 01:59:31;;;;;;;11.77;7.07;;;15.60;99.90;;;;;;2621560;46;20100;31
2023/07/03 02:02:09;;;;;;;11.85;6.40;;;15.50;99.90;;;;;;2603122;54;20919;31
2023/07/03 02:04:45;;;;;;;9.77;6.80;;;15.50;99.90;;;;;;2603053;54;20865;31
2023/07/03 02:07:20;;;;;;;9.00;6.70;;;15.50;99.90;;;;;;2603290;54;20084;31
2023/07/03 02:09:55;;;;;;;14.73;8.23;;;15.50;99.90;;;;;;2603176;54;20828;31
2023/07/03 02:12:33;;;;;;;7.80;6.80;;;15.50;99.90;;;;;;2603234;54;20056;31
2023/07/03 02:15:10;;;;;;;13.30;7.40;;;15.50;99.90;;;;;;2603068;54;21017;31
2023/07/03 02:17:45;;;;;;;8.93;6.70;;;15.50;99.90;;;;;;2603202;54;20104;31
2023/07/03 02:20:21;;;;;;;11.95;7.13;;;15.40;99.90;;;;;;2603195;54;19958;31
2023/07/03 02:22:56;;;;;;;10.67;7.03;;;15.40;99.90;;;;;;2603108;54;20776;31
2023/07/03 02:25:31;;;;;;;9.20;6.63;;;15.40;99.90;;;;;;2603170;54;20268;31
2023/07/03 02:28:10;;;;;;;9.80;7.17;;;15.40;99.90;;;;;;2701212;39;21578;31
2023/07/03 02:30:47;;;;;;;9.23;6.43;;;15.40;99.90;;;;;;2602929;54;20334;31
2023/07/03 02:33:22;;;;;;;10.10;7.22;;;15.40;99.90;;;;;;2602717;54;20037;31
2023/07/03 02:35:58;;;;;;;10.65;7.18;;;15.40;99.90;;;;;;2602977;54;20825;31
2023/07/03 02:38:33;;;;;;;8.82;6.45;;;15.40;99.90;;;;;;2602955;54;20826;31
2023/07/03 02:41:08;;;;;;;11.95;8.30;;;15.30;99.90;;;;;;2603044;54;19934;31
2023/07/03 02:43:46;;;;;;;10.93;8.13;;;15.40;99.90;;;;;;2603088;54;20837;31
2023/07/03 02:46:21;;;;;;;15.15;8.63;;;15.40;99.90;;;;;;2621575;47;20046;31
2023/07/03 02:48:57;;;;;;;15.25;8.70;;;15.40;99.90;;;;;;2719924;39;20454;31
2023/07/03 02:51:32;;;;;;;11.60;6.60;;;15.30;99.90;;;;;;2603023;54;20129;31
2023/07/03 02:54:09;;;;;;;11.95;7.70;;;15.30;99.90;;;;;;2602965;54;20898;31
2023/07/03 02:56:45;;;;;;;9.40;8.10;;;15.30;99.90;;;;;;2602893;54;20116;31
2023/07/03 02:59:23;;;;;;;11.15;7.90;;;15.30;99.90;;;;;;2603137;54;20920;31
2023/07/03 03:01:59;;;;;;;11.40;8.95;;;15.30;99.90;;;;;;2621416;47;20898;31
2023/07/03 03:04:35;;;;;;;9.70;6.45;;;15.20;99.90;;;;;;2602237;54;22370;31
2023/07/03 03:07:11;;;;;;;11.07;7.32;;;15.20;99.90;;;;;;2603142;54;20023;31
2023/07/03 03:09:47;;;;;;;10.90;7.57;;;15.30;99.90;;;;;;2603632;54;20158;31
2023/07/03 03:12:24;;;;;;;7.10;6.40;;;15.30;99.90;;;;;;2621733;46;20025;31
2023/07/03 03:15:03;;;;;;;9.50;6.75;;;15.30;99.90;;;;;;2603642;54;20936;31
2023/07/03 03:17:38;;;;;;;11.55;6.90;;;15.30;99.90;;;;;;2721115;39;20568;31
2023/07/03 03:20:16;;;;;;;9.02;7.53;;;15.30;99.90;;;;;;2622133;46;20054;31
2023/07/03 03:22:52;;;;;;;7.30;6.55;;;15.30;99.90;;;;;;2603874;54;20828;31
2023/07/03 03:25:31;;;;;;;13.45;7.80;;;15.30;99.90;;;;;;2603673;54;19935;31
2023/07/03 03:28:05;;;;;;;12.05;7.30;;;15.20;99.90;;;;;;2603673;54;19946;31
2023/07/03 03:30:44;;;;;;;9.82;7.57;;;15.30;99.90;;;;;;2603674;54;20026;31
2023/07/03 03:33:20;;;;;;;9.73;6.23;;;15.30;99.90;;;;;;2603643;54;20101;31
2023/07/03 03:35:55;;;;;;;10.50;6.97;;;15.30;99.90;;;;;;2621241;46;23089;31
2023/07/03 03:38:31;;;;;;;16.23;7.73;;;15.40;99.90;;;;;;2603084;54;21223;31
2023/07/03 03:41:08;;;;;;;10.60;7.00;;;15.40;99.90;;;;;;2602795;54;20264;31
2023/07/03 03:43:49;;;;;;;13.15;7.65;;;15.40;99.90;;;;;;2602797;54;20034;31
2023/07/03 03:46:31;;;;;;;12.55;8.30;;;15.40;99.90;;;;;;2622397;46;20049;31
2023/07/03 03:49:10;;;;;;;11.07;6.43;;;15.40;99.90;;;;;;2603915;54;20863;31
2023/07/03 03:51:44;;;;;;;9.15;6.00;;;15.50;99.90;;;;;;2603299;54;20093;31
2023/07/03 03:54:22;;;;;;;6.90;6.20;;;15.50;99.90;;;;;;2720872;39;20552;31
2023/07/03 03:56:57;;;;;;;10.07;6.97;;;15.60;99.90;;;;;;2603537;54;20841;31
2023/07/03 03:59:32;;;;;;;9.60;6.63;;;15.70;99.90;;;;;;2602888;54;20030;31
2023/07/03 04:02:11;;;;;;;11.30;7.38;;;15.70;99.90;;;;;;2603606;54;20041;31
2023/07/03 04:04:50;;;;;;;13.13;7.83;;;15.70;99.90;;;;;;2603649;54;20248;31
2023/07/03 04:07:26;;;;;;;14.32;7.28;;;15.70;99.90;;;;;;2602804;54;20030;31
2023/07/03 04:10:04;;;;;;;14.25;8.55;;;15.80;99.90;;;;;;2603040;54;20907;31
2023/07/03 04:12:39;;;;;;;8.68;5.95;;;15.80;99.90;;;;;;2603384;54;20054;31
2023/07/03 04:15:16;;;;;;;12.07;8.25;;;15.90;99.90;;;;;;2603039;54;20822;31
2023/07/03 04:17:56;;;;;;;11.65;8.00;;;15.90;99.90;;;;;;2701920;39;20485;31
2023/07/03 04:20:33;;;;;;;10.60;8.18;;;16.00;99.90;;;;;;2603310;54;20079;31
2023/07/03 04:23:08;;;;;;;12.13;7.63;;;16.00;99.90;;;;;;2603540;54;19989;31
2023/07/03 04:25:45;;;;;;;10.35;7.13;;;16.00;99.90;;;;;;2603803;54;20028;31
2023/07/03 04:28:20;;;;;;;10.60;6.60;;;16.10;99.90;;;;;;2603622;54;20053;31
2023/07/03 04:30:56;;;;;;;12.65;7.78;;;16.10;99.90;;;;;;2603451;54;20849;31
2023/07/03 04:33:35;;;;;;;9.25;7.53;;;16.20;99.90;;;;;;2603437;54;20030;31
2023/07/03 04:36:17;;;;;;;15.45;8.85;;;16.30;99.90;;;;;;2603342;54;21026;31
2023/07/03 04:38:57;;;;;;;13.87;7.57;;;16.40;99.90;;;;;;2603700;54;20012;31
2023/07/03 04:41:33;;;;;;;14.00;8.30;;;16.50;99.90;;;;;;2621843;46;20027;31
2023/07/03 04:44:12;;;;;;;;;;;16.60;99.90;;;;;;2603659;54;20878;31
2023/07/03 04:46:48;;;;;;;16.35;9.82;;;16.80;99.90;;;;;;2602815;54;20524;31
2023/07/03 04:49:27;;;;;;;12.68;8.70;;;17.10;99.90;;;;;;2602624;54;20619;31
2023/07/03 04:52:04;;;;;;;15.45;11.10;;;17.30;99.90;;;;;;2603506;54;20892;31
2023/07/03 04:54:38;;;;;;;15.87;11.40;;;17.40;99.90;;;;;;2603621;54;20046;31
2023/07/03 04:57:15;;;;;;;17.85;9.70;;;17.50;99.90;;;;;;2603361;54;20791;31
2023/07/03 04:59:54;;;;;;;16.23;8.90;;;17.60;99.90;;;;;;2602802;54;20854;31
2023/07/03 05:02:33;;;;;;;11.30;9.63;;;17.70;99.90;;;;;;2603297;54;20258;31
2023/07/03 05:05:13;;;;;;;12.70;8.48;;;17.80;99.90;;;;;;2622095;46;20053;31
2023/07/03 05:07:49;;;;;;;10.68;7.97;;;17.90;99.90;;;;;;2603709;54;20907;31
2023/07/03 05:10:25;;;;;;;11.52;7.63;;;18.00;99.90;;;;;;2603215;54;20112;31
2023/07/03 05:13:01;;;;;;;12.17;8.70;;;18.10;99.90;;;;;;2773222;31;20639;31
2023/07/03 05:15:40;;;;;;;12.10;7.32;;;18.40;99.90;;;;;;2603433;54;20053;31
2023/07/03 05:18:16;;;;;;;9.95;8.20;;;18.70;99.90;;;;;;2610232;46;20033;31
2023/07/03 05:20:55;;;;;;;11.88;8.45;;;19.00;99.90;;;;;;2621474;46;20022;31
2023/07/03 05:23:36;;;;;;;11.60;8.05;;;19.40;99.90;;;;;;2621901;46;20133;31
2023/07/03 05:26:16;;;;;;;14.67;7.77;;;19.70;99.90;;;;;;2603325;54;20034;31
2023/07/03 05:28:52;;;;;;;9.95;8.40;;;20.00;99.90;;;;;;2603458;54;20022;31
2023/07/03 05:31:28;;;;;;;;;;;20.30;99.90;;;;;;2603552;54;20073;31
2023/07/03 05:34:05;;;;;;;11.40;7.27;;;20.60;99.90;;;;;;2603503;54;20021;31
2023/07/03 05:36:46;;;;;;;12.52;7.25;;;20.80;99.90;;;;;;2603530;54;20023;31
2023/07/03 05:39:24;;;;;;;10.95;7.78;;;21.10;99.90;;;;;;2606322;46;22360;31
2023/07/03 05:42:02;;;;;;;10.80;7.70;;;21.40;99.90;;;;;;2602677;54;20905;31
2023/07/03 05:44:38;;;;;;;13.27;8.43;;;21.50;99.90;;;;;;2603524;54;20026;31
2023/07/03 05:47:14;;;;;;;11.60;7.73;;;21.60;99.90;;;;;;2603117;54;20928;31
2023/07/03 05:49:52;;;;;;;12.05;7.63;;;21.50;99.90;;;;;;2602495;54;21095;31
2023/07/03 05:52:33;;;;;;;13.95;7.80;;;21.60;99.90;;;;;;2603459;54;20022;31
2023/07/03 05:55:10;;;;;;;16.67;8.52;;;21.70;99.90;;;;;;2603317;54;20052;31
2023/07/03 05:57:47;;;;;;;10.55;7.60;;;21.90;99.90;;;;;;2603264;54;20130;31
2023/07/03 06:00:27;;;;;;;14.85;8.02;;;22.00;99.90;;;;;;2603191;54;21375;31
2023/07/03 06:03:04;;;;;;;13.70;7.82;;;22.10;99.90;;;;;;2622030;46;20892;31
2023/07/03 06:05:38;;;;;;;15.65;8.50;;;22.30;99.90;;;;;;2603365;54;20038;31
2023/07/03 06:08:17;;;;;;;12.57;7.63;;;22.40;99.90;;;;;;2603006;54;20807;31
2023/07/03 06:10:53;;;;;;;16.48;8.30;;;22.70;99.90;;;;;;2603283;54;20031;31
2023/07/03 06:13:29;;;;;;;15.07;7.88;;;22.90;99.90;;;;;;2603317;54;20026;31
2023/07/03 06:16:06;;;;;;;14.48;8.10;;;23.20;99.90;;;;;;2603325;54;20108;31
2023/07/03 06:18:42;;;;;;;13.20;7.88;;;23.50;99.90;;;;;;2700854;39;20568;31
2023/07/03 06:21:17;;;;;;;14.07;7.82;;;23.80;99.90;;;;;;2603194;54;20026;31
2023/07/03 06:23:57;;;;;;;15.23;7.65;;;24.20;99.90;;;;;;2620775;46;20026;31
2023/07/03 06:26:39;;;;;;;14.00;8.63;;;24.40;99.90;;;;;;2602910;46;20837;31
2023/07/03 06:29:18;;;;;;;13.75;8.40;;;24.60;99.90;;;;;;2602577;54;20026;31
2023/07/03 06:31:55;;;;;;;13.07;7.70;;;24.70;99.90;;;;;;2602283;54;20336;31
2023/07/03 06:34:31;;;;;;;14.48;7.45;;;24.80;99.90;;;;;;2602904;54;20886;31
2023/07/03 06:37:09;;;;;;;16.10;8.10;;;25.00;99.90;;;;;;2603218;54;20118;31
2023/07/03 06:39:47;;;;;;;11.30;7.87;;;25.00;99.90;;;;;;2603287;54;20590;31
2023/07/03 06:42:23;;;;;;;14.20;8.45;;;25.30;99.90;;;;;;2622525;46;20030;31
2023/07/03 06:45:05;;;;;;;13.82;7.45;;;25.50;99.90;;;;;;2604050;54;20897;31
2023/07/03 06:47:42;;;;;;;14.07;8.13;;;25.70;99.90;;;;;;2623337;46;20029;31
2023/07/03 06:50:23;;;;;;;15.25;7.72;;;26.00;99.90;;;;;;2604717;54;20030;31
2023/07/03 06:53:00;;;;;;;13.73;7.97;;;26.00;99.90;;;;;;2604814;54;20036;31
2023/07/03 06:55:38;;;;;;;12.85;7.25;;;26.20;99.90;;;;;;2604873;54;20886;31
2023/07/03 06:58:16;;;;;;;12.67;7.17;;;26.40;99.90;;;;;;2604933;54;20026;31
2023/07/03 07:00:52;;;;;;;14.05;8.15;;;26.60;99.90;;;;;;2622857;46;20909;31
2023/07/03 07:03:32;;;;;;;13.02;8.15;;;26.70;99.90;;;;;;2604679;54;20049;31
2023/07/03 07:06:12;;;;;;;14.77;8.30;;;26.50;99.90;;;;;;2623549;46;20038;31
2023/07/03 07:08:50;;;;;;;14.10;7.80;;;26.30;99.90;;;;;;2604893;54;20031;31
2023/07/03 07:11:35;;;;;;;11.13;7.78;;;26.40;99.90;;;;;;2604733;54;20085;31
2023/07/03 07:14:11;;;;;;;17.73;7.60;;;26.70;99.90;;;;;;2604678;54;20033;31
2023/07/03 07:16:46;;;;;;;;;;;26.90;99.90;;;;;;2622884;46;20830;31
2023/07/03 07:19:23;;;;;;;14.88;8.40;;;26.90;99.90;;;;;;2622770;46;20706;31
2023/07/03 07:21:58;;;;;;;11.15;7.07;;;27.00;99.90;;;;;;2604547;54;20033;31
2023/07/03 07:24:35;;;;;;;13.32;7.80;;;26.90;99.90;;;;;;2622861;46;20774;31
2023/07/03 07:27:15;;;;;;;14.05;8.02;;;26.80;99.90;;;;;;2604731;54;20085;31
2023/07/03 07:29:51;;;;;;;14.68;7.50;;;26.70;99.50;;;;;;2623368;46;19935;31
2023/07/03 07:32:27;;;;;;;13.43;8.20;;;26.80;99.90;;;;;;2604776;54;20030;31
2023/07/03 07:35:03;;;;;;;13.00;7.63;;;27.00;99.90;;;;;;2619639;46;20889;31
2023/07/03 07:37:41;;;;;;;14.45;6.85;;;27.00;99.10;;;;;;2604643;54;20018;31
2023/07/03 07:40:20;;;;;;;14.38;8.30;;;27.10;99.30;;;;;;2604686;54;20975;31
2023/07/03 07:43:00;;;;;;;13.27;7.88;;;27.10;99.00;;;;;;2604565;54;20896;31
2023/07/03 07:45:37;;;;;;;12.23;7.65;;;27.10;98.60;;;;;;2604706;54;20822;31
2023/07/03 07:48:14;;;;;;;10.30;7.22;;;27.20;99.10;;;;;;2622948;46;20145;31
2023/07/03 07:50:51;;;;;;;12.90;7.88;;;27.40;99.90;;;;;;2604424;54;20891;31
2023/07/03 07:53:32;;;;;;;11.98;7.28;;;27.50;97.80;;;;;;2603727;54;20037;31
2023/07/03 07:56:10;;;;;;;14.82;8.02;;;27.70;98.20;;;;;;2603514;54;20932;31
2023/07/03 07:58:50;;;;;;;11.88;7.60;;;27.60;96.80;;;;;;2622143;46;20081;31
2023/07/03 08:01:26;;;;;;;15.40;7.68;;;27.60;96.50;;;;;;2622128;46;20900;31
2023/07/03 08:04:03;;;;;;;15.45;7.40;;;27.70;98.80;;;;;;2622309;46;20821;31
2023/07/03 08:06:39;;;;;;;11.63;7.78;;;27.60;97.10;;;;;;2622066;46;20081;31
2023/07/03 08:09:18;;;;;;;14.40;8.05;;;27.40;97.60;;;;;;2603357;54;20835;31
2023/07/03 08:11:55;;;;;;;13.45;7.15;;;27.20;97.80;;;;;;2603346;54;20036;31
2023/07/03 08:14:35;;;;;;;14.83;8.10;;;27.10;97.50;;;;;;2602626;54;20090;31
2023/07/03 08:17:11;;;;;;;12.90;7.80;;;27.10;96.50;;;;;;2602796;54;22608;31
2023/07/03 08:19:48;;;;;;;11.25;7.43;;;27.30;96.20;;;;;;2603304;54;20022;31
2023/07/03 08:22:23;;;;;;;12.23;7.05;;;27.40;95.60;;;;;;2603634;54;20839;31
2023/07/03 08:24:59;;;;;;;22.67;9.43;;;27.50;95.70;;;;;;2603685;54;20030;31
2023/07/03 08:27:36;;;;;;;10.95;7.63;;;27.40;97.50;;;;;;2622061;46;20904;31
2023/07/03 08:30:17;;;;;;;13.57;9.20;;;27.30;95.20;;;;;;2607064;46;20038;31
2023/07/03 08:32:53;;;;;;;13.68;8.85;;;27.30;96.20;;;;;;2603322;54;20030;31
2023/07/03 08:35:30;;;;;;;12.88;8.65;;;27.60;95.70;;;;;;2621824;46;20038;31
2023/07/03 08:38:08;;;;;;;15.95;8.52;;;27.60;94.80;;;;;;2622347;46;20838;31
2023/07/03 08:40:44;;;;;;;12.60;8.00;;;27.50;93.30;;;;;;2621825;46;20053;31
2023/07/03 08:43:22;;;;;;;;;;;27.30;95.30;;;;;;2603487;54;20105;31
2023/07/03 08:46:02;;;;;;;14.82;8.60;;;27.00;94.80;;;;;;2622182;46;19934;31
2023/07/03 08:48:38;;;;;;;16.45;9.55;;;26.80;95.10;;;;;;2603427;54;20940;31
2023/07/03 08:51:18;;;;;;;13.60;8.55;;;26.50;94.40;;;;;;2621755;46;20026;31
2023/07/03 08:53:55;;;;;;;12.77;8.13;;;26.30;94.80;;;;;;2603266;54;20161;31
2023/07/03 08:56:32;;;;;;;12.57;7.97;;;26.30;95.80;;;;;;2602488;54;20089;31
2023/07/03 08:59:06;;;;;;;15.13;9.05;;;26.60;97.50;;;;;;2602669;54;22385;31
2023/07/03 09:01:50;;;;;;;14.45;8.60;;;26.80;97.00;;;;;;2603400;54;20033;31
2023/07/03 09:04:39;;;;;;;14.20;8.90;;;27.00;94.80;;;;;;2603034;54;20064;31
2023/07/03 09:07:20;;;;;;;14.80;8.65;;;27.00;95.10;;;;;;2603125;54;20026;31
2023/07/03 09:09:58;;;;;;;13.60;9.00;;;27.10;95.20;;;;;;2603408;54;20026;31
2023/07/03 09:12:36;;;;;;;16.42;9.07;;;27.20;94.70;;;;;;2603359;54;20043;31
2023/07/03 09:15:16;;;;;;;13.30;9.25;;;27.40;95.20;;;;;;2603208;54;20907;31
2023/07/03 09:17:56;;;;;;;17.88;8.50;;;27.40;95.10;;;;;;2603332;54;20913;31
2023/07/03 09:20:33;;;;;;;11.55;8.65;;;27.40;93.00;;;;;;2603414;54;20038;31
2023/07/03 09:23:12;;;;;;;14.43;8.10;;;27.60;93.10;;;;;;2621600;46;20033;31
2023/07/03 09:25:55;;;;;;;12.52;7.68;;;27.60;94.00;;;;;;2603406;54;20800;31
2023/07/03 09:28:37;;;;;;;13.20;8.40;;;27.30;92.50;;;;;;2621756;46;20054;31
2023/07/03 09:31:13;;;;;;;13.45;8.43;;;26.90;93.30;;;;;;2603249;54;20026;31
2023/07/03 09:33:50;;;;;;;14.95;8.07;;;26.60;93.40;;;;;;2603163;54;20889;31
2023/07/03 09:36:29;;;;;;;13.20;7.95;;;26.30;92.80;;;;;;2603275;54;20066;31
2023/07/03 09:39:13;;;;;;;13.57;8.40;;;26.50;93.20;;;;;;2621962;46;20919;31
2023/07/03 09:41:49;;;;;;;14.10;8.75;;;26.60;92.10;;;;;;2603363;54;20800;31
2023/07/03 09:44:25;;;;;;;15.63;9.13;;;26.60;93.30;;;;;;2603076;54;20905;31
2023/07/03 09:47:00;;;;;;;15.77;9.47;;;26.40;91.90;;;;;;2603101;54;20037;31
2023/07/03 09:49:42;;;;;;;15.48;7.70;;;26.30;92.30;;;;;;2621810;46;20058;31
2023/07/03 09:52:16;;;;;;;13.73;8.93;;;26.20;93.40;;;;;;2603175;54;20026;31
2023/07/03 09:54:54;;;;;;;16.75;8.95;;;26.40;94.90;;;;;;2602687;54;20046;31
2023/07/03 09:57:29;;;;;;;17.95;9.00;;;26.70;94.90;;;;;;2602359;54;20242;31
2023/07/03 10:00:14;;;;;;;14.05;8.10;;;27.10;93.40;;;;;;2602995;54;20970;31
2023/07/03 10:02:54;;;;;;;14.20;8.55;;;27.50;93.10;;;;;;2603304;54;20018;31
2023/07/03 10:05:35;;;;;;;13.30;9.10;;;27.60;92.40;;;;;;2603288;54;20160;31
2023/07/03 10:08:17;;;;;;;16.45;8.80;;;27.50;91.90;;;;;;2602974;54;20053;31
2023/07/03 10:10:53;;;;;;;13.85;8.38;;;27.40;91.30;;;;;;2603257;54;20026;31
2023/07/03 10:13:34;;;;;;;18.30;9.95;;;27.60;91.50;;;;;;2602955;54;20808;31
2023/07/03 10:16:11;;;;;;;14.27;9.07;;;27.60;90.10;;;;;;2602866;54;20860;31
2023/07/03 10:18:48;;;;;;;;;;;27.50;91.40;;;;;;2603448;54;20037;31
2023/07/03 10:21:27;;;;;;;18.20;10.95;;;27.20;91.20;;;;;;2621584;46;19934;31
2023/07/03 10:24:04;;;;;;;16.10;9.63;;;26.80;91.40;;;;;;2603194;54;20061;31
2023/07/03 10:26:43;;;;;;;16.38;9.68;;;26.80;93.10;;;;;;2603276;54;20049;31
2023/07/03 10:29:22;;;;;;;16.85;9.80;;;27.00;93.50;;;;;;2602364;54;19986;31
2023/07/03 10:31:59;;;;;;;15.02;9.70;;;27.20;92.20;;;;;;2617393;46;20887;31
2023/07/03 10:34:39;;;;;;;17.00;9.55;;;27.40;91.70;;;;;;2602070;54;20153;31
2023/07/03 10:37:20;;;;;;;15.40;9.10;;;27.60;91.50;;;;;;2602236;54;20829;31
2023/07/03 10:39:57;;;;;;;14.68;9.02;;;27.70;91.20;;;;;;2603063;54;20030;31
2023/07/03 10:42:34;;;;;;;13.90;8.77;;;28.00;91.40;;;;;;2602964;54;21379;31
2023/07/03 10:45:13;;;;;;;13.63;9.02;;;28.20;90.80;;;;;;2621481;47;20029;31
2023/07/03 10:47:52;;;;;;;14.48;9.60;;;28.30;91.20;;;;;;2621636;47;20023;31
2023/07/03 10:50:31;;;;;;;14.38;9.02;;;28.40;90.20;;;;;;2603113;54;20026;31
2023/07/03 10:53:15;;;;;;;13.45;9.68;;;28.50;89.90;;;;;;2621670;47;20890;31
2023/07/03 10:55:54;;;;;;;15.70;9.00;;;28.60;86.80;;;;;;2620899;47;20117;31
2023/07/03 10:58:35;;;;;;;14.37;8.53;;;28.70;87.10;;;;;;2602393;54;20030;31
2023/07/03 11:01:16;;;;;;;14.73;9.23;;;28.80;85.30;;;;;;2610724;47;20027;31
2023/07/03 11:03:57;;;;;;;14.85;9.10;;;28.70;83.80;;;;;;2621550;47;20247;31
2023/07/03 11:06:58;;;;;;;13.50;7.85;;;28.50;86.10;;;;;;2603139;54;20863;31
2023/07/03 11:09:42;;;;;;;17.33;9.10;;;28.30;85.50;;;;;;2603115;54;20157;31
2023/07/03 11:12:23;;;;;;;15.25;8.90;;;28.10;85.70;;;;;;2602935;54;20113;31
2023/07/03 11:15:10;;;;;;;19.35;7.88;;;27.80;88.30;;;;;;2602884;54;20053;31
2023/07/03 11:17:52;;;;;;;13.98;8.63;;;27.70;90.00;;;;;;2602949;54;20117;31
2023/07/03 11:20:35;;;;;;;16.80;8.65;;;27.80;90.20;;;;;;2602859;54;20814;31
2023/07/03 11:23:19;;;;;;;15.63;9.03;;;28.00;90.60;;;;;;2602881;54;20825;31
2023/07/03 11:25:55;;;;;;;14.82;8.68;;;28.10;90.00;;;;;;2602951;54;20027;31
2023/07/03 11:28:36;;;;;;;17.65;10.13;;;28.30;88.30;;;;;;2603376;54;20154;31
2023/07/03 11:31:14;;;;;;;16.98;9.82;;;28.30;91.80;;;;;;2622297;46;20038;31
2023/07/03 11:33:49;;;;;;;17.05;9.50;;;28.40;91.90;;;;;;2603868;54;20022;31
2023/07/03 11:36:40;;;;;;;14.60;8.57;;;28.30;90.20;;;;;;2622407;46;20942;31
2023/07/03 11:39:34;;;;;;;16.30;8.52;;;28.30;91.40;;;;;;2622019;46;20030;31
2023/07/03 11:42:16;;;;;;;13.48;8.45;;;28.40;90.80;;;;;;2602942;54;20298;31
2023/07/03 11:45:02;;;;;;;12.70;8.35;;;28.40;91.10;;;;;;2603797;54;20053;31
2023/07/03 11:47:38;;;;;;;15.40;8.50;;;28.30;88.50;;;;;;2603839;54;20093;31
2023/07/03 11:50:13;;;;;;;19.80;8.25;;;28.10;87.60;;;;;;2603776;54;20855;31
2023/07/03 11:52:49;;;;;;;13.75;8.73;;;28.10;90.00;;;;;;2603693;54;20881;31
2023/07/03 11:55:40;;;;;;;18.70;8.27;;;28.00;89.40;;;;;;2603759;54;20073;31
2023/07/03 11:58:14;;;;;;;12.53;7.97;;;28.00;88.70;;;;;;2603729;54;20022;31
2023/07/03 12:01:31;;;;;;;14.15;6.93;;;27.90;87.20;;;;;;2603338;54;20037;31
2023/07/03 12:04:10;;;;;;;14.57;7.30;;;27.90;84.10;;;;;;2603550;54;20140;31
2023/07/03 12:06:51;;;;;;;10.85;6.75;;;27.80;85.30;;;;;;2622363;46;20891;31
2023/07/03 12:09:32;;;;;;;14.55;6.80;;;27.80;85.70;;;;;;2603516;54;20912;31
2023/07/03 12:12:20;;;;;;;17.33;7.28;;;27.70;83.90;;;;;;2603620;54;20027;31
2023/07/03 12:14:57;;;;;;;13.90;6.72;;;27.50;84.20;;;;;;2603322;54;20113;31
2023/07/03 12:17:36;;;;;;;15.60;7.55;;;27.50;85.60;;;;;;2603279;54;20045;31
2023/07/03 12:20:16;;;;;;;17.08;6.93;;;27.50;84.50;;;;;;2603522;54;20026;31
2023/07/03 12:22:52;;;;;;;18.27;7.65;;;27.50;84.70;;;;;;2602730;54;20813;31
2023/07/03 12:25:36;;;;;;;12.55;6.57;;;27.50;85.30;;;;;;2603371;54;20026;31
2023/07/03 12:28:14;;;;;;;12.50;6.22;;;27.50;84.40;;;;;;2602601;54;20037;31
2023/07/03 12:30:53;;;;;;;10.70;6.20;;;27.60;84.50;;;;;;2602646;54;19961;31
2023/07/03 12:33:32;;;;;;;11.10;6.18;;;27.70;82.60;;;;;;2602709;54;20030;31
2023/07/03 12:36:09;;;;;;;12.60;6.35;;;27.70;84.50;;;;;;2603341;54;20792;31
2023/07/03 12:38:45;;;;;;;14.25;6.00;;;27.70;80.00;;;;;;2603370;54;20033;31
2023/07/03 12:41:30;;;;;;;;;;;27.60;79.50;;;;;;2603238;54;20910;31
2023/07/03 12:44:13;;;;;;;9.57;5.27;;;27.70;82.20;;;;;;2622178;46;19938;31
2023/07/03 12:46:51;;;;;;;12.20;5.30;;;27.80;80.10;;;;;;2603652;54;20113;31
2023/07/03 12:49:29;;;;;;;11.50;5.93;;;27.80;83.00;;;;;;2603121;54;20065;31
2023/07/03 12:52:06;;;;;;;12.82;5.88;;;27.90;83.00;;;;;;2603520;54;20042;31
2023/07/03 12:54:44;;;;;;;11.90;6.00;;;27.90;82.30;;;;;;2621902;46;20057;31
2023/07/03 12:57:21;;;;;;;12.63;5.95;;;27.90;79.60;;;;;;2611578;46;20048;31
2023/07/03 12:59:57;;;;;;;11.85;5.50;;;27.90;81.10;;;;;;2602765;54;22385;31
2023/07/03 13:02:35;;;;;;;8.43;5.28;;;27.80;79.30;;;;;;2621904;46;21002;31
2023/07/03 13:07:48;;;;;;;12.18;6.00;;;27.50;81.30;;;;;;2602598;54;20913;31
2023/07/03 13:10:25;;;;;;;12.90;6.55;;;27.50;82.20;;;;;;2603266;54;20150;31
2023/07/03 13:13:07;;;;;;;11.65;5.72;;;27.40;80.10;;;;;;2602578;54;20049;31
2023/07/03 13:15:44;;;;;;;11.00;5.70;;;27.40;81.40;;;;;;2602540;54;20113;31
2023/07/03 13:18:25;;;;;;;12.83;5.93;;;27.50;82.70;;;;;;2614534;46;20057;31
2023/07/03 13:21:03;;;;;;;9.82;5.57;;;27.50;81.40;;;;;;2606412;46;21182;31
2023/07/03 13:23:43;;;;;;;11.63;5.55;;;27.30;80.50;;;;;;2602467;54;20894;31
2023/07/03 13:26:24;;;;;;;12.10;6.00;;;27.30;83.00;;;;;;2603264;54;20022;31
2023/07/03 13:29:01;;;;;;;14.05;5.80;;;27.30;81.90;;;;;;2603256;54;20033;31
2023/07/03 13:31:37;;;;;;;12.67;6.00;;;27.30;80.50;;;;;;2603307;54;20831;31
2023/07/03 13:34:26;;;;;;;12.80;6.32;;;27.30;80.30;;;;;;2603393;54;20109;31
2023/07/03 13:37:06;;;;;;;13.00;6.20;;;27.30;80.50;;;;;;2602958;54;20858;31
2023/07/03 13:39:44;;;;;;;12.25;6.40;;;27.20;81.30;;;;;;2621619;46;20026;31
2023/07/03 13:42:34;;;;;;;12.15;6.22;;;27.20;81.20;;;;;;2603377;54;20056;31
2023/07/03 13:45:14;;;;;;;11.30;5.93;;;27.30;79.90;;;;;;2621949;46;20022;31
2023/07/03 13:48:00;;;;;;;12.88;6.22;;;27.30;80.70;;;;;;2603354;54;20129;31
2023/07/03 13:50:38;;;;;;;9.93;5.88;;;27.30;80.90;;;;;;2603226;54;20038;31